Circle Line Brooklyn — WDE8160 — position and weather

sailwx.info

Track history (hours):
 
Tides and Currents Weather Stations Pressure Air Temp Water Temp Dewpoint Dewpoint Depression Visibility Wind Speed Wind Dir Waves Ship Positions

Circle Line Brooklyn

Owner: Circle Line Sight Seeing Yachts Inc., New York, NY. More information available from US FCC via Universal Licensing System and Coast Guard Vessel Documentation Center.

Last reported at 2016-Jun-24 20:33 UTC. Time now 2016-Jun-25 01:43 UTC.
Position N 40°46' W 074°00'.

MMSI: 367402250.

Date/timePositionNaut miles runAvg speedWind from/ knotsBaromVisibWave heightAir tempDewpointWater temp
2016-Jun-24 20:33N 40°46' W 074°00'5 4.6
2016-Jun-24 19:33N 40°41' W 074°02'5 4.5
2016-Jun-24 18:32N 40°46' W 074°00'3 3.3
2016-Jun-24 17:34N 40°43' W 073°58'3 3.3
2016-Jun-24 16:34N 40°46' W 074°00'0 0.0
2016-Jun-24 15:33N 40°46' W 074°00'0 0.0
2016-Jun-24 14:33N 40°46' W 074°00'3 0.2
2016-Jun-24 00:33N 40°43' W 074°02'2 1.8
2016-Jun-23 23:33N 40°42' W 073°60'3 3.2
2016-Jun-23 22:28N 40°46' W 074°00'0 0.0
2016-Jun-23 21:28N 40°46' W 074°00'0 0.0
2016-Jun-23 20:32N 40°46' W 074°00'0 0.1
2016-Jun-23 19:33N 40°46' W 074°00'0 0.1
2016-Jun-23 18:30N 40°46' W 074°00'2 1.5
2016-Jun-23 17:07N 40°46' W 073°57'610.4
2016-Jun-23 16:33N 40°41' W 074°03'5 4.8
2016-Jun-23 15:31N 40°46' W 074°00'0 0.0
2016-Jun-21 20:31N 40°46' W 074°00'4 4.4
2016-Jun-21 19:34N 40°42' W 074°01'4 3.7
2016-Jun-21 18:24N 40°46' W 074°00'3 4.1
2016-Jun-21 17:33N 40°42' W 073°60'3 3.5
2016-Jun-21 16:34N 40°46' W 074°00'0 0.1
2016-Jun-21 15:31N 40°46' W 074°00'0 0.0
2016-Jun-21 14:33N 40°46' W 074°00'4 0.3
2016-Jun-21 00:33N 40°42' W 074°02'3 2.6
2016-Jun-20 23:33N 40°43' W 073°58'3 3.3
2016-Jun-20 22:31N 40°46' W 074°00'0 0.0
2016-Jun-20 21:31N 40°46' W 074°00'0 0.0
2016-Jun-20 20:33N 40°46' W 074°00'5 4.9
2016-Jun-20 19:33N 40°41' W 074°02'5 4.9
2016-Jun-20 18:33N 40°46' W 074°00'3 3.4
2016-Jun-20 17:33N 40°43' W 073°59'3 3.4
2016-Jun-20 16:33N 40°46' W 074°00'0 0.0
2016-Jun-20 15:33N 40°46' W 074°00'0 0.0
2016-Jun-20 14:31N 40°46' W 074°00'2 0.1
2016-Jun-19 20:20N 40°44' W 074°01'3 3.7
2016-Jun-19 19:33N 40°41' W 074°02'3 1.6
2016-Jun-19 17:33N 40°43' W 073°58'2 1.1
2016-Jun-19 15:21N 40°44' W 074°01'0 0.0
2016-Jun-19 02:34N 40°45' W 074°01'3 1.3
2016-Jun-19 00:34N 40°42' W 073°60'3 3.4
2016-Jun-18 23:34N 40°46' W 074°01'1 0.3
2016-Jun-18 21:34N 40°46' W 074°00'0 0.0
2016-Jun-18 20:32N 40°46' W 074°00'0 0.0
2016-Jun-18 19:32N 40°46' W 074°00'0 0.0
2016-Jun-18 18:29N 40°46' W 074°00'0 0.0
2016-Jun-18 17:32N 40°46' W 074°00'0 0.0
2016-Jun-18 03:28N 40°46' W 074°00'4 4.0
2016-Jun-18 02:33N 40°42' W 074°00'4 1.8
2016-Jun-18 00:10N 40°46' W 074°00'1 0.9
2016-Jun-17 23:33N 40°46' W 074°00'0 0.0
2016-Jun-17 22:33N 40°46' W 074°00'0 0.0
2016-Jun-17 21:33N 40°46' W 074°00'0 0.0
2016-Jun-17 20:33N 40°46' W 074°00'4 4.2
2016-Jun-17 19:33N 40°42' W 074°01'4 4.1
2016-Jun-17 18:32N 40°46' W 074°00'3 3.5
2016-Jun-17 17:33N 40°42' W 073°60'3 3.4
2016-Jun-17 16:34N 40°46' W 074°00'0 0.0
2016-Jun-17 15:33N 40°46' W 074°00'0 0.0
2016-Jun-17 14:33N 40°46' W 074°00'0 0.0
2016-Jun-17 13:32N 40°46' W 074°00'3 0.2
2016-Jun-17 00:33N 40°43' W 074°01'2 2.3
2016-Jun-16 23:33N 40°41' W 074°03'5 5.0
2016-Jun-16 22:33N 40°46' W 074°00'0 0.0
2016-Jun-16 21:33N 40°46' W 074°00'0 0.0
2016-Jun-16 20:33N 40°46' W 074°00'4 2.2
2016-Jun-16 18:33N 40°42' W 074°02'4 4.4
2016-Jun-16 17:33N 40°46' W 074°00'3 1.6
2016-Jun-16 15:33N 40°43' W 073°58'3 3.1
2016-Jun-16 14:33N 40°46' W 074°00'0 0.0
2016-Jun-16 13:33N 40°46' W 074°00'  
Track history (hours):
 
Tides and Currents Weather Stations Pressure Air Temp Water Temp Dewpoint Dewpoint Depression Visibility Wind Speed Wind Dir Waves Ship Positions

Circle Line Brooklyn

Owner: Circle Line Sight Seeing Yachts Inc., New York, NY. More information available from US FCC via Universal Licensing System and Coast Guard Vessel Documentation Center.

Last reported at 2016-Jun-24 20:33 UTC. Time now 2016-Jun-25 01:43 UTC.
Position N 40°46' W 074°00'.

MMSI: 367402250.

Date/timePositionNaut miles runAvg speedWind from/ knotsBaromVisibWave heightAir tempDewpointWater temp
2016-Jun-24 20:33N 40°46' W 074°00'5 4.6
2016-Jun-24 19:33N 40°41' W 074°02'5 4.5
2016-Jun-24 18:32N 40°46' W 074°00'3 3.3
2016-Jun-24 17:34N 40°43' W 073°58'3 3.3
2016-Jun-24 16:34N 40°46' W 074°00'0 0.0
2016-Jun-24 15:33N 40°46' W 074°00'0 0.0
2016-Jun-24 14:33N 40°46' W 074°00'3 0.2
2016-Jun-24 00:33N 40°43' W 074°02'2 1.8
2016-Jun-23 23:33N 40°42' W 073°60'3 3.2
2016-Jun-23 22:28N 40°46' W 074°00'0 0.0
2016-Jun-23 21:28N 40°46' W 074°00'0 0.0
2016-Jun-23 20:32N 40°46' W 074°00'0 0.1
2016-Jun-23 19:33N 40°46' W 074°00'0 0.1
2016-Jun-23 18:30N 40°46' W 074°00'2 1.5
2016-Jun-23 17:07N 40°46' W 073°57'610.4
2016-Jun-23 16:33N 40°41' W 074°03'5 4.8
2016-Jun-23 15:31N 40°46' W 074°00'0 0.0
2016-Jun-21 20:31N 40°46' W 074°00'4 4.4
2016-Jun-21 19:34N 40°42' W 074°01'4 3.7
2016-Jun-21 18:24N 40°46' W 074°00'3 4.1
2016-Jun-21 17:33N 40°42' W 073°60'3 3.5
2016-Jun-21 16:34N 40°46' W 074°00'0 0.1
2016-Jun-21 15:31N 40°46' W 074°00'0 0.0
2016-Jun-21 14:33N 40°46' W 074°00'4 0.3
2016-Jun-21 00:33N 40°42' W 074°02'3 2.6
2016-Jun-20 23:33N 40°43' W 073°58'3 3.3
2016-Jun-20 22:31N 40°46' W 074°00'0 0.0
2016-Jun-20 21:31N 40°46' W 074°00'0 0.0
2016-Jun-20 20:33N 40°46' W 074°00'5 4.9
2016-Jun-20 19:33N 40°41' W 074°02'5 4.9
2016-Jun-20 18:33N 40°46' W 074°00'3 3.4
2016-Jun-20 17:33N 40°43' W 073°59'3 3.4
2016-Jun-20 16:33N 40°46' W 074°00'0 0.0
2016-Jun-20 15:33N 40°46' W 074°00'0 0.0
2016-Jun-20 14:31N 40°46' W 074°00'2 0.1
2016-Jun-19 20:20N 40°44' W 074°01'3 3.7
2016-Jun-19 19:33N 40°41' W 074°02'3 1.6
2016-Jun-19 17:33N 40°43' W 073°58'2 1.1
2016-Jun-19 15:21N 40°44' W 074°01'0 0.0
2016-Jun-19 02:34N 40°45' W 074°01'3 1.3
2016-Jun-19 00:34N 40°42' W 073°60'3 3.4
2016-Jun-18 23:34N 40°46' W 074°01'1 0.3
2016-Jun-18 21:34N 40°46' W 074°00'0 0.0
2016-Jun-18 20:32N 40°46' W 074°00'0 0.0
2016-Jun-18 19:32N 40°46' W 074°00'0 0.0
2016-Jun-18 18:29N 40°46' W 074°00'0 0.0
2016-Jun-18 17:32N 40°46' W 074°00'0 0.0
2016-Jun-18 03:28N 40°46' W 074°00'4 4.0
2016-Jun-18 02:33N 40°42' W 074°00'4 1.8
2016-Jun-18 00:10N 40°46' W 074°00'1 0.9
2016-Jun-17 23:33N 40°46' W 074°00'0 0.0
2016-Jun-17 22:33N 40°46' W 074°00'0 0.0
2016-Jun-17 21:33N 40°46' W 074°00'0 0.0
2016-Jun-17 20:33N 40°46' W 074°00'4 4.2
2016-Jun-17 19:33N 40°42' W 074°01'4 4.1
2016-Jun-17 18:32N 40°46' W 074°00'3 3.5
2016-Jun-17 17:33N 40°42' W 073°60'3 3.4
2016-Jun-17 16:34N 40°46' W 074°00'0 0.0
2016-Jun-17 15:33N 40°46' W 074°00'0 0.0
2016-Jun-17 14:33N 40°46' W 074°00'0 0.0
2016-Jun-17 13:32N 40°46' W 074°00'3 0.2
2016-Jun-17 00:33N 40°43' W 074°01'2 2.3
2016-Jun-16 23:33N 40°41' W 074°03'5 5.0
2016-Jun-16 22:33N 40°46' W 074°00'0 0.0
2016-Jun-16 21:33N 40°46' W 074°00'0 0.0
2016-Jun-16 20:33N 40°46' W 074°00'4 2.2
2016-Jun-16 18:33N 40°42' W 074°02'4 4.4
2016-Jun-16 17:33N 40°46' W 074°00'3 1.6
2016-Jun-16 15:33N 40°43' W 073°58'3 3.1
2016-Jun-16 14:33N 40°46' W 074°00'0 0.0
2016-Jun-16 13:33N 40°46' W 074°00'  

Dump ship's entire track history